PWSweather.com
Personal Weather Stations
Station Observations
KOHAVON11
Long Road Station, Avon, OH 44011

Long Road StationAvon, OH 44011

Lat: 41.437, Lon: -82.0477

Elevation: 686

Station Type: Davis Vantage Pro2

http://www.avon-weather.com

High Low Average
Temperature 62.5°F16.9°F 47.3°F8.5°F 52.3°F11.3°F
Dew Point 55.8°F13.2°F 38.9°F3.8°F 44.4°F6.9°F
Winds 14.0 mph -22.5 mph - Calm Calm 6.2 mph 10.0 mph
Wind Gusts 26.0 mph41.8 mph -- 15.2 mph24.5 mph
Humidity 87% 48% 76%
Pressure 29.73 in1006.80 in 29.58 in1001.70 in -
Precipitation 4.11 in104.40 in - -
Hour Temp Dew Point Humidity Winds Wind Gusts Pressure Precip Precip Rate Daily Precip Total
12:00 AM 61.1°F16.2°C 40.7°F4.8°C 48% 3.0 mph SSE4.8 kmh SSE 10.0 mph16.1 kmh 29.70 in1005.8 mb 0.00 in0.0 mm 0.00 in0.0 mm 0.00 in0.0 mm
12:05 AM 61.0°F16.1°C 41.2°F5.1°C 49% 4.0 mph S6.4 kmh S 10.0 mph16.1 kmh 29.69 in1005.4 mb 0.00 in0.0 mm 0.00 in0.0 mm 0.00 in0.0 mm
12:10 AM 60.9°F16.1°C 41.1°F5.1°C 49% 11.0 mph S17.7 kmh S 11.0 mph17.7 kmh 29.69 in1005.4 mb 0.00 in0.0 mm 0.00 in0.0 mm 0.00 in0.0 mm
12:15 AM 60.8°F16.0°C 41.0°F5.0°C 49% 7.0 mph SSW11.3 kmh SSW 11.0 mph17.7 kmh 29.69 in1005.4 mb 0.00 in0.0 mm 0.00 in0.0 mm 0.00 in0.0 mm
12:20 AM 60.8°F16.0°C 41.5°F5.3°C 50% 8.0 mph S12.9 kmh S 12.0 mph19.3 kmh 29.69 in1005.4 mb 0.00 in0.0 mm 0.00 in0.0 mm 0.00 in0.0 mm
12:25 AM 60.7°F15.9°C 41.4°F5.2°C 50% 2.0 mph S3.2 kmh S 12.0 mph19.3 kmh 29.68 in1005.1 mb 0.00 in0.0 mm 0.00 in0.0 mm 0.00 in0.0 mm
12:30 AM 60.7°F15.9°C 42.0°F5.6°C 51% 2.0 mph S3.2 kmh S 12.0 mph19.3 kmh 29.68 in1005.1 mb 0.00 in0.0 mm 0.00 in0.0 mm 0.00 in0.0 mm
12:35 AM 60.5°F15.8°C 41.8°F5.4°C 51% 3.0 mph SW4.8 kmh SW 12.0 mph19.3 kmh 29.68 in1005.1 mb 0.00 in0.0 mm 0.00 in0.0 mm 0.00 in0.0 mm
12:40 AM 60.5°F15.8°C 42.3°F5.7°C 52% 5.0 mph SSW8.0 kmh SSW 9.0 mph14.5 kmh 29.67 in1004.7 mb 0.00 in0.0 mm 0.00 in0.0 mm 0.00 in0.0 mm
12:45 AM 60.5°F15.8°C 42.3°F5.7°C 52% 5.0 mph SSW8.0 kmh SSW 10.0 mph16.1 kmh 29.68 in1005.1 mb 0.00 in0.0 mm 0.00 in0.0 mm 0.00 in0.0 mm
12:50 AM 60.5°F15.8°C 42.8°F6.0°C 53% 7.0 mph SE11.3 kmh SE 11.0 mph17.7 kmh 29.67 in1004.7 mb 0.00 in0.0 mm 0.00 in0.0 mm 0.00 in0.0 mm
12:55 AM 60.6°F15.9°C 42.9°F6.1°C 53% 4.0 mph S6.4 kmh S 12.0 mph19.3 kmh 29.67 in1004.7 mb 0.00 in0.0 mm 0.00 in0.0 mm 0.00 in0.0 mm
01:00 AM 60.7°F15.9°C 43.5°F6.4°C 54% 5.0 mph S8.0 kmh S 12.0 mph19.3 kmh 29.67 in1004.7 mb 0.00 in0.0 mm 0.00 in0.0 mm 0.00 in0.0 mm
01:05 AM 60.8°F16.0°C 43.6°F6.4°C 54% 9.0 mph SSW14.5 kmh SSW 14.0 mph22.5 kmh 29.67 in1004.7 mb 0.00 in0.0 mm 0.00 in0.0 mm 0.00 in0.0 mm
01:10 AM 60.9°F16.1°C 44.2°F6.8°C 55% 11.0 mph S17.7 kmh S 14.0 mph22.5 kmh 29.66 in1004.4 mb 0.00 in0.0 mm 0.00 in0.0 mm 0.00 in0.0 mm
01:15 AM 60.9°F16.1°C 44.2°F6.8°C 55% 7.0 mph S11.3 kmh S 14.0 mph22.5 kmh 29.66 in1004.4 mb 0.00 in0.0 mm 0.00 in0.0 mm 0.00 in0.0 mm
01:20 AM 60.9°F16.1°C 44.2°F6.8°C 55% 9.0 mph SE14.5 kmh SE 14.0 mph22.5 kmh 29.66 in1004.4 mb 0.00 in0.0 mm 0.00 in0.0 mm 0.00 in0.0 mm
01:25 AM 61.0°F16.1°C 44.8°F7.1°C 56% 8.0 mph S12.9 kmh S 14.0 mph22.5 kmh 29.66 in1004.4 mb 0.00 in0.0 mm 0.00 in0.0 mm 0.00 in0.0 mm
01:30 AM 61.1°F16.2°C 44.9°F7.2°C 56% 9.0 mph S14.5 kmh S 14.0 mph22.5 kmh 29.66 in1004.4 mb 0.00 in0.0 mm 0.00 in0.0 mm 0.00 in0.0 mm
01:35 AM 61.3°F16.3°C 45.1°F7.3°C 56% 8.0 mph S12.9 kmh S 14.0 mph22.5 kmh 29.65 in1004.1 mb 0.00 in0.0 mm 0.00 in0.0 mm 0.00 in0.0 mm
01:40 AM 61.4°F16.3°C 45.2°F7.3°C 56% 10.0 mph S16.1 kmh S 14.0 mph22.5 kmh 29.64 in1003.7 mb 0.00 in0.0 mm 0.00 in0.0 mm 0.00 in0.0 mm
01:45 AM 61.5°F16.4°C 45.7°F7.6°C 57% 7.0 mph S11.3 kmh S 14.0 mph22.5 kmh 29.65 in1004.1 mb 0.00 in0.0 mm 0.00 in0.0 mm 0.00 in0.0 mm
01:50 AM 61.6°F16.4°C 45.8°F7.7°C 57% 8.0 mph S12.9 kmh S 14.0 mph22.5 kmh 29.64 in1003.7 mb 0.00 in0.0 mm 0.00 in0.0 mm 0.00 in0.0 mm
01:55 AM 61.7°F16.5°C 46.4°F8.0°C 58% 9.0 mph S14.5 kmh S 15.0 mph24.1 kmh 29.64 in1003.7 mb 0.00 in0.0 mm 0.00 in0.0 mm 0.00 in0.0 mm
02:00 AM 61.8°F16.6°C 46.5°F8.1°C 58% 11.0 mph SSW17.7 kmh SSW 15.0 mph24.1 kmh 29.64 in1003.7 mb 0.00 in0.0 mm 0.00 in0.0 mm 0.00 in0.0 mm
02:05 AM 61.9°F16.6°C 47.1°F8.4°C 59% 6.0 mph S9.7 kmh S 15.0 mph24.1 kmh 29.64 in1003.7 mb 0.00 in0.0 mm 0.00 in0.0 mm 0.00 in0.0 mm
02:10 AM 62.0°F16.7°C 47.1°F8.4°C 59% 8.0 mph SSW12.9 kmh SSW 15.0 mph24.1 kmh 29.63 in1003.4 mb 0.00 in0.0 mm 0.00 in0.0 mm 0.00 in0.0 mm
02:15 AM 62.1°F16.7°C 47.7°F8.7°C 60% 12.0 mph S19.3 kmh S 14.0 mph22.5 kmh 29.63 in1003.4 mb 0.00 in0.0 mm 0.00 in0.0 mm 0.00 in0.0 mm
02:20 AM 62.2°F16.8°C 47.8°F8.8°C 60% 8.0 mph S12.9 kmh S 15.0 mph24.1 kmh 29.63 in1003.4 mb 0.00 in0.0 mm 0.00 in0.0 mm 0.00 in0.0 mm
02:25 AM 62.3°F16.8°C 47.9°F8.8°C 60% 9.0 mph SW14.5 kmh SW 15.0 mph24.1 kmh 29.63 in1003.4 mb 0.00 in0.0 mm 0.00 in0.0 mm 0.00 in0.0 mm
02:30 AM 62.3°F16.8°C 48.3°F9.1°C 61% 10.0 mph S16.1 kmh S 15.0 mph24.1 kmh 29.63 in1003.4 mb 0.00 in0.0 mm 0.00 in0.0 mm 0.00 in0.0 mm
02:35 AM 62.4°F16.9°C 48.9°F9.4°C 62% 7.0 mph SSW11.3 kmh SSW 15.0 mph24.1 kmh 29.63 in1003.4 mb 0.00 in0.0 mm 0.00 in0.0 mm 0.00 in0.0 mm
02:40 AM 62.3°F16.8°C 48.8°F9.3°C 62% 8.0 mph S12.9 kmh S 15.0 mph24.1 kmh 29.63 in1003.4 mb 0.00 in0.0 mm 0.00 in0.0 mm 0.00 in0.0 mm
02:45 AM 62.2°F16.8°C 49.1°F9.5°C 63% 6.0 mph S9.7 kmh S 15.0 mph24.1 kmh 29.63 in1003.4 mb 0.00 in0.0 mm 0.00 in0.0 mm 0.00 in0.0 mm
02:50 AM 62.2°F16.8°C 49.1°F9.5°C 63% 6.0 mph SSW9.7 kmh SSW 13.0 mph20.9 kmh 29.62 in1003.0 mb 0.00 in0.0 mm 0.00 in0.0 mm 0.00 in0.0 mm
02:55 AM 62.1°F16.7°C 49.5°F9.7°C 64% 8.0 mph S12.9 kmh S 13.0 mph20.9 kmh 29.63 in1003.4 mb 0.00 in0.0 mm 0.00 in0.0 mm 0.00 in0.0 mm
03:00 AM 62.0°F16.7°C 49.4°F9.7°C 64% 7.0 mph SSW11.3 kmh SSW 11.0 mph17.7 kmh 29.62 in1003.0 mb 0.00 in0.0 mm 0.00 in0.0 mm 0.00 in0.0 mm
03:05 AM 61.9°F16.6°C 49.7°F9.8°C 65% 7.0 mph S11.3 kmh S 12.0 mph19.3 kmh 29.62 in1003.0 mb 0.00 in0.0 mm 0.00 in0.0 mm 0.00 in0.0 mm
03:10 AM 61.9°F16.6°C 49.7°F9.8°C 65% 12.0 mph S19.3 kmh S 12.0 mph19.3 kmh 29.62 in1003.0 mb 0.00 in0.0 mm 0.00 in0.0 mm 0.00 in0.0 mm
03:15 AM 61.9°F16.6°C 50.2°F10.1°C 66% 9.0 mph S14.5 kmh S 12.0 mph19.3 kmh 29.62 in1003.0 mb 0.00 in0.0 mm 0.00 in0.0 mm 0.00 in0.0 mm
03:20 AM 61.9°F16.6°C 50.2°F10.1°C 66% 7.0 mph SSW11.3 kmh SSW 12.0 mph19.3 kmh 29.61 in1002.7 mb 0.00 in0.0 mm 0.00 in0.0 mm 0.00 in0.0 mm
03:25 AM 61.9°F16.6°C 50.2°F10.1°C 66% 7.0 mph SSW11.3 kmh SSW 10.0 mph16.1 kmh 29.61 in1002.7 mb 0.00 in0.0 mm 0.00 in0.0 mm 0.00 in0.0 mm
03:30 AM 61.9°F16.6°C 50.6°F10.3°C 67% 5.0 mph SSW8.0 kmh SSW 10.0 mph16.1 kmh 29.61 in1002.7 mb 0.00 in0.0 mm 0.00 in0.0 mm 0.00 in0.0 mm
03:35 AM 61.8°F16.6°C 50.5°F10.3°C 67% 4.0 mph SW6.4 kmh SW 10.0 mph16.1 kmh 29.60 in1002.4 mb 0.00 in0.0 mm 0.00 in0.0 mm 0.00 in0.0 mm
03:40 AM 61.9°F16.6°C 51.0°F10.6°C 68% 4.0 mph SSW6.4 kmh SSW 10.0 mph16.1 kmh 29.59 in1002.0 mb 0.00 in0.0 mm 0.00 in0.0 mm 0.00 in0.0 mm
03:45 AM 61.8°F16.6°C 51.3°F10.7°C 69% 6.0 mph SSW9.7 kmh SSW 14.0 mph22.5 kmh 29.60 in1002.4 mb 0.00 in0.0 mm 0.00 in0.0 mm 0.00 in0.0 mm
03:50 AM 61.6°F16.4°C 51.9°F11.1°C 71% 1.0 mph SW1.6 kmh SW 14.0 mph22.5 kmh 29.60 in1002.4 mb 0.00 in0.0 mm 0.00 in0.0 mm 0.00 in0.0 mm
03:55 AM 61.5°F16.4°C 51.8°F11.0°C 71% 4.0 mph S6.4 kmh S 14.0 mph22.5 kmh 29.59 in1002.0 mb 0.00 in0.0 mm 0.00 in0.0 mm 0.00 in0.0 mm
04:00 AM 61.4°F16.3°C 52.1°F11.2°C 72% 5.0 mph SSW8.0 kmh SSW 14.0 mph22.5 kmh 29.60 in1002.4 mb 0.00 in0.0 mm 0.00 in0.0 mm 0.00 in0.0 mm
04:05 AM 61.4°F16.3°C 52.5°F11.4°C 73% 1.0 mph SW1.6 kmh SW 10.0 mph16.1 kmh 29.59 in1002.0 mb 0.00 in0.0 mm 0.00 in0.0 mm 0.00 in0.0 mm
04:10 AM 61.4°F16.3°C 52.9°F11.6°C 74% 2.0 mph SW3.2 kmh SW 10.0 mph16.1 kmh 29.59 in1002.0 mb 0.00 in0.0 mm 0.00 in0.0 mm 0.00 in0.0 mm
04:15 AM 61.5°F16.4°C 53.3°F11.8°C 75% 2.0 mph SW3.2 kmh SW 7.0 mph11.3 kmh 29.59 in1002.0 mb 0.00 in0.0 mm 0.00 in0.0 mm 0.00 in0.0 mm
04:20 AM 61.6°F16.4°C 53.4°F11.9°C 75% 1.0 mph SW1.6 kmh SW 7.0 mph11.3 kmh 29.59 in1002.0 mb 0.00 in0.0 mm 0.00 in0.0 mm 0.00 in0.0 mm
04:25 AM 61.6°F16.4°C 53.8°F12.1°C 76% 3.0 mph SW4.8 kmh SW 7.0 mph11.3 kmh 29.59 in1002.0 mb 0.00 in0.0 mm 0.00 in0.0 mm 0.00 in0.0 mm
04:30 AM 61.7°F16.5°C 53.9°F12.2°C 76% 2.0 mph SW3.2 kmh SW 7.0 mph11.3 kmh 29.59 in1002.0 mb 0.00 in0.0 mm 0.00 in0.0 mm 0.00 in0.0 mm
04:35 AM 61.8°F16.6°C 54.0°F12.2°C 76% 4.0 mph SSW6.4 kmh SSW 9.0 mph14.5 kmh 29.59 in1002.0 mb 0.00 in0.0 mm 0.00 in0.0 mm 0.00 in0.0 mm
04:40 AM 61.9°F16.6°C 54.1°F12.3°C 76% 2.0 mph SW3.2 kmh SW 9.0 mph14.5 kmh 29.59 in1002.0 mb 0.00 in0.0 mm 0.00 in0.0 mm 0.00 in0.0 mm
04:45 AM 61.9°F16.6°C 54.5°F12.5°C 77% 2.0 mph WSW3.2 kmh WSW 9.0 mph14.5 kmh 29.59 in1002.0 mb 0.00 in0.0 mm 0.00 in0.0 mm 0.00 in0.0 mm
04:50 AM 62.1°F16.7°C 55.0°F12.8°C 78% 5.0 mph WSW8.0 kmh WSW 9.0 mph14.5 kmh 29.59 in1002.0 mb 0.00 in0.0 mm 0.00 in0.0 mm 0.00 in0.0 mm
04:55 AM 62.3°F16.8°C 55.2°F12.9°C 78% 3.0 mph WSW4.8 kmh WSW 8.0 mph12.9 kmh 29.59 in1002.0 mb 0.00 in0.0 mm 0.00 in0.0 mm 0.00 in0.0 mm
05:00 AM 62.5°F16.9°C 55.8°F13.2°C 79% 7.0 mph WSW11.3 kmh WSW 8.0 mph12.9 kmh 29.59 in1002.0 mb 0.00 in0.0 mm 0.00 in0.0 mm 0.00 in0.0 mm
05:05 AM 62.5°F16.9°C 55.8°F13.2°C 79% 2.0 mph WSW3.2 kmh WSW 11.0 mph17.7 kmh 29.59 in1002.0 mb 0.00 in0.0 mm 0.00 in0.0 mm 0.00 in0.0 mm
05:10 AM 62.5°F16.9°C 55.4°F13.0°C 78% 11.0 mph WSW17.7 kmh WSW 23.0 mph37.0 kmh 29.59 in1002.0 mb 0.00 in0.0 mm 0.00 in0.0 mm 0.00 in0.0 mm
05:15 AM 61.3°F16.3°C 52.8°F11.6°C 74% 7.0 mph WNW11.3 kmh WNW 23.0 mph37.0 kmh 29.60 in1002.4 mb 0.00 in0.0 mm 0.00 in0.0 mm 0.00 in0.0 mm
05:20 AM 60.2°F15.7°C 52.5°F11.4°C 76% 4.0 mph WNW6.4 kmh WNW 23.0 mph37.0 kmh 29.61 in1002.7 mb 0.00 in0.0 mm 0.00 in0.0 mm 0.00 in0.0 mm
05:25 AM 59.3°F15.2°C 52.3°F11.3°C 78% 7.0 mph WSW11.3 kmh WSW 23.0 mph37.0 kmh 29.61 in1002.7 mb 0.00 in0.0 mm 0.00 in0.0 mm 0.01 in0.3 mm
05:30 AM 58.4°F14.7°C 52.1°F11.2°C 80% 3.0 mph WNW4.8 kmh WNW 20.0 mph32.2 kmh 29.60 in1002.4 mb 0.12 in3.0 mm 1.44 in36.6 mm 0.02 in0.5 mm
05:35 AM 57.7°F14.3°C 51.8°F11.0°C 81% 4.0 mph W6.4 kmh W 20.0 mph32.2 kmh 29.61 in1002.7 mb 0.06 in1.5 mm 0.00 in0.0 mm 0.02 in0.5 mm
05:40 AM 57.2°F14.0°C 51.7°F10.9°C 82% 2.0 mph NW3.2 kmh NW 9.0 mph14.5 kmh 29.60 in1002.4 mb 0.04 in1.0 mm 0.00 in0.0 mm 0.02 in0.5 mm
05:45 AM 56.8°F13.8°C 51.6°F10.9°C 83% 1.0 mph WNW1.6 kmh WNW 9.0 mph14.5 kmh 29.60 in1002.4 mb 0.04 in1.0 mm 0.00 in0.0 mm 0.03 in0.8 mm
05:50 AM 56.3°F13.5°C 51.1°F10.6°C 83% 3.0 mph NW4.8 kmh NW 8.0 mph12.9 kmh 29.61 in1002.7 mb 0.08 in2.0 mm 0.48 in12.2 mm 0.04 in1.0 mm
05:55 AM 55.9°F13.3°C 51.1°F10.6°C 84% 4.0 mph W6.4 kmh W 13.0 mph20.9 kmh 29.61 in1002.7 mb 0.08 in2.0 mm 0.00 in0.0 mm 0.04 in1.0 mm
06:00 AM 55.5°F13.1°C 50.7°F10.4°C 84% 5.0 mph NW8.0 kmh NW 13.0 mph20.9 kmh 29.61 in1002.7 mb 0.08 in2.0 mm 0.00 in0.0 mm 0.05 in1.3 mm
06:05 AM 55.0°F12.8°C 50.2°F10.1°C 84% 4.0 mph WNW6.4 kmh WNW 13.0 mph20.9 kmh 29.61 in1002.7 mb 0.07 in1.8 mm 0.00 in0.0 mm 0.05 in1.3 mm
06:10 AM 54.5°F12.5°C 49.7°F9.8°C 84% 4.0 mph NW6.4 kmh NW 14.0 mph22.5 kmh 29.61 in1002.7 mb 0.07 in1.8 mm 0.00 in0.0 mm 0.06 in1.5 mm
06:15 AM 53.9°F12.2°C 49.1°F9.5°C 84% 7.0 mph SW11.3 kmh SW 14.0 mph22.5 kmh 29.61 in1002.7 mb 0.08 in2.0 mm 0.12 in3.0 mm 0.07 in1.8 mm
06:20 AM 53.3°F11.8°C 48.5°F9.2°C 84% 9.0 mph WSW14.5 kmh WSW 20.0 mph32.2 kmh 29.61 in1002.7 mb 0.07 in1.8 mm 0.00 in0.0 mm 0.07 in1.8 mm
06:25 AM 52.8°F11.6°C 48.0°F8.9°C 84% 8.0 mph W12.9 kmh W 20.0 mph32.2 kmh 29.61 in1002.7 mb 0.06 in1.5 mm 0.00 in0.0 mm 0.08 in2.0 mm
06:30 AM 52.3°F11.3°C 47.6°F8.7°C 84% 5.0 mph W8.0 kmh W 20.0 mph32.2 kmh 29.62 in1003.0 mb 0.06 in1.5 mm 0.00 in0.0 mm 0.08 in2.0 mm
06:35 AM 51.9°F11.1°C 47.2°F8.4°C 84% 9.0 mph WSW14.5 kmh WSW 20.0 mph32.2 kmh 29.64 in1003.7 mb 0.05 in1.3 mm 0.00 in0.0 mm 0.09 in2.3 mm
06:40 AM 51.5°F10.8°C 46.8°F8.2°C 84% 6.0 mph W9.7 kmh W 15.0 mph24.1 kmh 29.63 in1003.4 mb 0.13 in3.3 mm 0.96 in24.4 mm 0.10 in2.5 mm
06:45 AM 51.3°F10.7°C 46.6°F8.1°C 84% 6.0 mph WSW9.7 kmh WSW 15.0 mph24.1 kmh 29.63 in1003.4 mb 0.36 in9.1 mm 2.76 in70.1 mm 0.13 in3.3 mm
06:50 AM 51.1°F10.6°C 46.4°F8.0°C 84% 4.0 mph W6.4 kmh W 13.0 mph20.9 kmh 29.63 in1003.4 mb 0.11 in2.8 mm 0.00 in0.0 mm 0.14 in3.6 mm
06:55 AM 50.9°F10.5°C 46.5°F8.1°C 85% 9.0 mph WSW14.5 kmh WSW 13.0 mph20.9 kmh 29.64 in1003.7 mb 0.06 in1.5 mm 0.00 in0.0 mm 0.14 in3.6 mm
07:00 AM 50.9°F10.5°C 46.5°F8.1°C 85% 6.0 mph W9.7 kmh W 13.0 mph20.9 kmh 29.65 in1004.1 mb 0.13 in3.3 mm 0.08 in2.0 mm 0.15 in3.8 mm
07:05 AM 50.9°F10.5°C 46.8°F8.2°C 86% 7.0 mph WSW11.3 kmh WSW 13.0 mph20.9 kmh 29.64 in1003.7 mb 0.10 in2.5 mm 0.00 in0.0 mm 0.16 in4.1 mm
07:10 AM 50.8°F10.4°C 46.7°F8.2°C 86% 3.0 mph WSW4.8 kmh WSW 13.0 mph20.9 kmh 29.63 in1003.4 mb 0.09 in2.3 mm 0.00 in0.0 mm 0.17 in4.3 mm
07:15 AM 50.7°F10.4°C 46.6°F8.1°C 86% 8.0 mph SW12.9 kmh SW 13.0 mph20.9 kmh 29.62 in1003.0 mb 0.11 in2.8 mm 0.24 in6.1 mm 0.18 in4.6 mm
07:20 AM 50.6°F10.3°C 46.5°F8.1°C 86% 6.0 mph WSW9.7 kmh WSW 14.0 mph22.5 kmh 29.61 in1002.7 mb 0.32 in8.1 mm 2.52 in64.0 mm 0.20 in5.1 mm
07:25 AM 50.5°F10.3°C 46.4°F8.0°C 86% 10.0 mph W16.1 kmh W 14.0 mph22.5 kmh 29.61 in1002.7 mb 0.15 in3.8 mm 0.00 in0.0 mm 0.21 in5.3 mm
07:30 AM 50.3°F10.2°C 46.2°F7.9°C 86% 5.0 mph WSW8.0 kmh WSW 14.0 mph22.5 kmh 29.61 in1002.7 mb 0.12 in3.0 mm 0.00 in0.0 mm 0.22 in5.6 mm
07:35 AM 50.1°F10.1°C 46.0°F7.8°C 86% 3.0 mph WSW4.8 kmh WSW 14.0 mph22.5 kmh 29.61 in1002.7 mb 0.09 in2.3 mm 0.00 in0.0 mm 0.22 in5.6 mm
07:40 AM 50.0°F10.0°C 46.3°F7.9°C 87% 1.0 mph WSW1.6 kmh WSW 11.0 mph17.7 kmh 29.61 in1002.7 mb 0.05 in1.3 mm 0.00 in0.0 mm 0.22 in5.6 mm
07:45 AM 50.0°F10.0°C 46.3°F7.9°C 87% 3.0 mph WSW4.8 kmh WSW 11.0 mph17.7 kmh 29.59 in1002.0 mb 0.04 in1.0 mm 0.00 in0.0 mm 0.22 in5.6 mm
07:50 AM 50.0°F10.0°C 46.3°F7.9°C 87% Calm Calm 4.0 mph6.4 kmh 29.58 in1001.7 mb 0.00 in0.0 mm 0.00 in0.0 mm 0.23 in5.8 mm
07:55 AM 50.0°F10.0°C 46.3°F7.9°C 87% Calm Calm -- 29.58 in1001.7 mb 0.12 in3.0 mm 1.44 in36.6 mm 0.24 in6.1 mm
08:00 AM 49.9°F9.9°C 46.2°F7.9°C 87% 1.0 mph WSW1.6 kmh WSW 1.0 mph1.6 kmh 29.58 in1001.7 mb 0.14 in3.6 mm 0.02 in0.5 mm 0.25 in6.4 mm
08:05 AM 49.9°F9.9°C 46.2°F7.9°C 87% 1.0 mph WSW1.6 kmh WSW 2.0 mph3.2 kmh 29.58 in1001.7 mb 0.12 in3.0 mm 0.00 in0.0 mm 0.26 in6.6 mm
08:10 AM 49.9°F9.9°C 46.2°F7.9°C 87% Calm Calm -- 29.58 in1001.7 mb 0.12 in3.0 mm 0.00 in0.0 mm 0.27 in6.9 mm
08:15 AM 49.9°F9.9°C 46.2°F7.9°C 87% 1.0 mph WSW1.6 kmh WSW 1.0 mph1.6 kmh 29.58 in1001.7 mb 0.06 in1.5 mm 0.00 in0.0 mm 0.27 in6.9 mm
08:20 AM 49.8°F9.9°C 46.1°F7.8°C 87% 5.0 mph SW8.0 kmh SW 8.0 mph12.9 kmh 29.60 in1002.4 mb 0.04 in1.0 mm 0.00 in0.0 mm 0.27 in6.9 mm
08:25 AM 49.6°F9.8°C 45.9°F7.7°C 87% Calm Calm 10.0 mph16.1 kmh 29.59 in1002.0 mb 0.00 in0.0 mm 0.00 in0.0 mm 0.27 in6.9 mm
08:30 AM 49.5°F9.7°C 45.8°F7.7°C 87% 1.0 mph WSW1.6 kmh WSW 10.0 mph16.1 kmh 29.60 in1002.4 mb 0.00 in0.0 mm 0.00 in0.0 mm 0.27 in6.9 mm
08:35 AM 49.4°F9.7°C 45.7°F7.6°C 87% 1.0 mph WSW1.6 kmh WSW 10.0 mph16.1 kmh 29.59 in1002.0 mb 0.00 in0.0 mm 0.00 in0.0 mm 0.27 in6.9 mm
08:40 AM 49.4°F9.7°C 45.7°F7.6°C 87% 2.0 mph WSW3.2 kmh WSW 10.0 mph16.1 kmh 29.60 in1002.4 mb 0.00 in0.0 mm 0.00 in0.0 mm 0.27 in6.9 mm
08:45 AM 49.4°F9.7°C 45.7°F7.6°C 87% 1.0 mph WSW1.6 kmh WSW 4.0 mph6.4 kmh 29.60 in1002.4 mb 0.00 in0.0 mm 0.00 in0.0 mm 0.27 in6.9 mm
08:50 AM 49.3°F9.6°C 45.6°F7.6°C 87% 2.0 mph WSW3.2 kmh WSW 4.0 mph6.4 kmh 29.60 in1002.4 mb 0.00 in0.0 mm 0.00 in0.0 mm 0.27 in6.9 mm
08:55 AM 49.3°F9.6°C 45.6°F7.6°C 87% 4.0 mph SW6.4 kmh SW 7.0 mph11.3 kmh 29.62 in1003.0 mb 0.00 in0.0 mm 0.00 in0.0 mm 0.27 in6.9 mm
09:00 AM 49.3°F9.6°C 45.6°F7.6°C 87% 4.0 mph SW6.4 kmh SW 7.0 mph11.3 kmh 29.62 in1003.0 mb 0.00 in0.0 mm 0.00 in0.0 mm 0.27 in6.9 mm
09:05 AM 49.2°F9.6°C 45.5°F7.5°C 87% 3.0 mph SW4.8 kmh SW 8.0 mph12.9 kmh 29.62 in1003.0 mb 0.00 in0.0 mm 0.00 in0.0 mm 0.27 in6.9 mm
09:10 AM 49.2°F9.6°C 45.5°F7.5°C 87% 2.0 mph SW3.2 kmh SW 8.0 mph12.9 kmh 29.61 in1002.7 mb 0.00 in0.0 mm 0.00 in0.0 mm 0.27 in6.9 mm
09:15 AM 49.2°F9.6°C 45.5°F7.5°C 87% 3.0 mph WSW4.8 kmh WSW 8.0 mph12.9 kmh 29.61 in1002.7 mb 0.00 in0.0 mm 0.00 in0.0 mm 0.27 in6.9 mm
09:20 AM 49.1°F9.5°C 45.4°F7.4°C 87% 2.0 mph WSW3.2 kmh WSW 8.0 mph12.9 kmh 29.62 in1003.0 mb 0.00 in0.0 mm 0.00 in0.0 mm 0.27 in6.9 mm
09:25 AM 49.1°F9.5°C 45.4°F7.4°C 87% 4.0 mph SW6.4 kmh SW 8.0 mph12.9 kmh 29.61 in1002.7 mb 0.00 in0.0 mm 0.00 in0.0 mm 0.27 in6.9 mm
09:30 AM 49.0°F9.4°C 45.3°F7.4°C 87% 5.0 mph WSW8.0 kmh WSW 8.0 mph12.9 kmh 29.62 in1003.0 mb 0.00 in0.0 mm 0.00 in0.0 mm 0.27 in6.9 mm
09:35 AM 48.9°F9.4°C 45.2°F7.3°C 87% 4.0 mph WSW6.4 kmh WSW 8.0 mph12.9 kmh 29.61 in1002.7 mb 0.00 in0.0 mm 0.00 in0.0 mm 0.27 in6.9 mm
09:40 AM 48.7°F9.3°C 45.0°F7.2°C 87% 5.0 mph SW8.0 kmh SW 11.0 mph17.7 kmh 29.63 in1003.4 mb 0.00 in0.0 mm 0.00 in0.0 mm 0.27 in6.9 mm
09:45 AM 48.5°F9.2°C 44.8°F7.1°C 87% 4.0 mph WSW6.4 kmh WSW 11.0 mph17.7 kmh 29.62 in1003.0 mb 0.00 in0.0 mm 0.00 in0.0 mm 0.27 in6.9 mm
09:50 AM 48.4°F9.1°C 44.7°F7.1°C 87% 3.0 mph WSW4.8 kmh WSW 12.0 mph19.3 kmh 29.61 in1002.7 mb 0.00 in0.0 mm 0.00 in0.0 mm 0.27 in6.9 mm
09:55 AM 48.2°F9.0°C 44.5°F6.9°C 87% 4.0 mph WSW6.4 kmh WSW 12.0 mph19.3 kmh 29.63 in1003.4 mb 0.00 in0.0 mm 0.00 in0.0 mm 0.27 in6.9 mm
10:00 AM 48.2°F9.0°C 44.5°F6.9°C 87% 4.0 mph WSW6.4 kmh WSW 12.0 mph19.3 kmh 29.62 in1003.0 mb 0.00 in0.0 mm 0.00 in0.0 mm 0.27 in6.9 mm
10:05 AM 48.1°F8.9°C 44.4°F6.9°C 87% 6.0 mph WSW9.7 kmh WSW 12.0 mph19.3 kmh 29.62 in1003.0 mb 0.00 in0.0 mm 0.00 in0.0 mm 0.27 in6.9 mm
10:10 AM 48.1°F8.9°C 44.4°F6.9°C 87% 4.0 mph WNW6.4 kmh WNW 13.0 mph20.9 kmh 29.62 in1003.0 mb 0.00 in0.0 mm 0.00 in0.0 mm 0.27 in6.9 mm
10:15 AM 48.0°F8.9°C 44.3°F6.8°C 87% 6.0 mph WSW9.7 kmh WSW 13.0 mph20.9 kmh 29.62 in1003.0 mb 0.00 in0.0 mm 0.00 in0.0 mm 0.27 in6.9 mm
10:20 AM 48.1°F8.9°C 44.4°F6.9°C 87% 7.0 mph WSW11.3 kmh WSW 14.0 mph22.5 kmh 29.62 in1003.0 mb 0.00 in0.0 mm 0.00 in0.0 mm 0.27 in6.9 mm
10:25 AM 48.4°F9.1°C 44.4°F6.9°C 86% 5.0 mph SW8.0 kmh SW 14.0 mph22.5 kmh 29.62 in1003.0 mb 0.00 in0.0 mm 0.00 in0.0 mm 0.27 in6.9 mm
10:30 AM 48.5°F9.2°C 44.2°F6.8°C 85% 6.0 mph WSW9.7 kmh WSW 14.0 mph22.5 kmh 29.62 in1003.0 mb 0.00 in0.0 mm 0.00 in0.0 mm 0.27 in6.9 mm
10:35 AM 48.4°F9.1°C 44.1°F6.7°C 85% 4.0 mph WSW6.4 kmh WSW 14.0 mph22.5 kmh 29.63 in1003.4 mb 0.00 in0.0 mm 0.00 in0.0 mm 0.27 in6.9 mm
10:40 AM 48.4°F9.1°C 44.1°F6.7°C 85% 5.0 mph W8.0 kmh W 14.0 mph22.5 kmh 29.63 in1003.4 mb 0.00 in0.0 mm 0.00 in0.0 mm 0.27 in6.9 mm
10:45 AM 48.4°F9.1°C 43.7°F6.5°C 84% 7.0 mph W11.3 kmh W 14.0 mph22.5 kmh 29.63 in1003.4 mb 0.00 in0.0 mm 0.00 in0.0 mm 0.27 in6.9 mm
10:50 AM 48.4°F9.1°C 43.4°F6.3°C 83% 6.0 mph WSW9.7 kmh WSW 17.0 mph27.4 kmh 29.63 in1003.4 mb 0.00 in0.0 mm 0.00 in0.0 mm 0.27 in6.9 mm
10:55 AM 48.3°F9.1°C 43.0°F6.1°C 82% 7.0 mph W11.3 kmh W 17.0 mph27.4 kmh 29.63 in1003.4 mb 0.00 in0.0 mm 0.00 in0.0 mm 0.27 in6.9 mm
11:00 AM 48.4°F9.1°C 42.4°F5.8°C 80% 5.0 mph SW8.0 kmh SW 17.0 mph27.4 kmh 29.63 in1003.4 mb 0.00 in0.0 mm 0.00 in0.0 mm 0.27 in6.9 mm
11:05 AM 48.5°F9.2°C 42.2°F5.7°C 79% 12.0 mph WSW19.3 kmh WSW 17.0 mph27.4 kmh 29.63 in1003.4 mb 0.00 in0.0 mm 0.00 in0.0 mm 0.27 in6.9 mm
11:10 AM 48.7°F9.3°C 42.1°F5.6°C 78% 7.0 mph WSW11.3 kmh WSW 14.0 mph22.5 kmh 29.62 in1003.0 mb 0.00 in0.0 mm 0.00 in0.0 mm 0.27 in6.9 mm
11:15 AM 48.7°F9.3°C 41.4°F5.2°C 76% 5.0 mph WSW8.0 kmh WSW 14.0 mph22.5 kmh 29.62 in1003.0 mb 0.00 in0.0 mm 0.00 in0.0 mm 0.27 in6.9 mm
11:20 AM 48.9°F9.4°C 41.9°F5.5°C 77% 7.0 mph W11.3 kmh W 13.0 mph20.9 kmh 29.62 in1003.0 mb 0.00 in0.0 mm 0.00 in0.0 mm 0.27 in6.9 mm
11:25 AM 49.0°F9.4°C 40.9°F4.9°C 74% 8.0 mph WSW12.9 kmh WSW 13.0 mph20.9 kmh 29.62 in1003.0 mb 0.00 in0.0 mm 0.00 in0.0 mm 0.27 in6.9 mm
11:30 AM 49.2°F9.6°C 41.1°F5.1°C 74% 8.0 mph WSW12.9 kmh WSW 16.0 mph25.7 kmh 29.62 in1003.0 mb 0.00 in0.0 mm 0.00 in0.0 mm 0.27 in6.9 mm
11:35 AM 49.2°F9.6°C 40.8°F4.9°C 73% 6.0 mph W9.7 kmh W 16.0 mph25.7 kmh 29.62 in1003.0 mb 0.00 in0.0 mm 0.00 in0.0 mm 0.27 in6.9 mm
11:40 AM 49.0°F9.4°C 39.9°F4.4°C 71% 10.0 mph W16.1 kmh W 21.0 mph33.8 kmh 29.62 in1003.0 mb 0.00 in0.0 mm 0.00 in0.0 mm 0.27 in6.9 mm
11:45 AM 48.9°F9.4°C 39.8°F4.3°C 71% 7.0 mph WSW11.3 kmh WSW 21.0 mph33.8 kmh 29.62 in1003.0 mb 0.00 in0.0 mm 0.00 in0.0 mm 0.27 in6.9 mm
11:50 AM 48.8°F9.3°C 39.7°F4.3°C 71% 8.0 mph W12.9 kmh W 21.0 mph33.8 kmh 29.63 in1003.4 mb 0.00 in0.0 mm 0.00 in0.0 mm 0.27 in6.9 mm
11:55 AM 48.7°F9.3°C 39.6°F4.2°C 71% 6.0 mph W9.7 kmh W 21.0 mph33.8 kmh 29.63 in1003.4 mb 0.00 in0.0 mm 0.00 in0.0 mm 0.27 in6.9 mm
12:00 PM 48.9°F9.4°C 39.8°F4.3°C 71% 9.0 mph SSW14.5 kmh SSW 14.0 mph22.5 kmh 29.63 in1003.4 mb 0.00 in0.0 mm 0.00 in0.0 mm 0.27 in6.9 mm
12:05 PM 49.0°F9.4°C 40.2°F4.6°C 72% 8.0 mph W12.9 kmh W 14.0 mph22.5 kmh 29.63 in1003.4 mb 0.00 in0.0 mm 0.00 in0.0 mm 0.27 in6.9 mm
12:10 PM 49.1°F9.5°C 39.9°F4.4°C 71% 6.0 mph SW9.7 kmh SW 15.0 mph24.1 kmh 29.63 in1003.4 mb 0.00 in0.0 mm 0.00 in0.0 mm 0.27 in6.9 mm
12:15 PM 49.9°F9.9°C 40.7°F4.8°C 71% 5.0 mph W8.0 kmh W 15.0 mph24.1 kmh 29.63 in1003.4 mb 0.00 in0.0 mm 0.00 in0.0 mm 0.27 in6.9 mm
12:20 PM 50.2°F10.1°C 40.2°F4.6°C 69% 7.0 mph WSW11.3 kmh WSW 15.0 mph24.1 kmh 29.63 in1003.4 mb 0.00 in0.0 mm 0.00 in0.0 mm 0.27 in6.9 mm
12:25 PM 50.0°F10.0°C 40.1°F4.5°C 69% 7.0 mph WSW11.3 kmh WSW 15.0 mph24.1 kmh 29.63 in1003.4 mb 0.00 in0.0 mm 0.00 in0.0 mm 0.27 in6.9 mm
12:30 PM 49.9°F9.9°C 40.0°F4.4°C 69% 7.0 mph WSW11.3 kmh WSW 13.0 mph20.9 kmh 29.63 in1003.4 mb 0.00 in0.0 mm 0.00 in0.0 mm 0.27 in6.9 mm
12:35 PM 49.8°F9.9°C 39.5°F4.2°C 68% 8.0 mph WSW12.9 kmh WSW 16.0 mph25.7 kmh 29.63 in1003.4 mb 0.00 in0.0 mm 0.00 in0.0 mm 0.27 in6.9 mm
12:40 PM 49.6°F9.8°C 39.3°F4.1°C 68% 9.0 mph W14.5 kmh W 16.0 mph25.7 kmh 29.63 in1003.4 mb 0.00 in0.0 mm 0.00 in0.0 mm 0.27 in6.9 mm
12:45 PM 49.5°F9.7°C 39.6°F4.2°C 69% 6.0 mph WSW9.7 kmh WSW 17.0 mph27.4 kmh 29.63 in1003.4 mb 0.00 in0.0 mm 0.00 in0.0 mm 0.27 in6.9 mm
12:50 PM 49.4°F9.7°C 39.5°F4.2°C 69% 7.0 mph WSW11.3 kmh WSW 17.0 mph27.4 kmh 29.63 in1003.4 mb 0.00 in0.0 mm 0.00 in0.0 mm 0.27 in6.9 mm
12:55 PM 49.4°F9.7°C 39.5°F4.2°C 69% 8.0 mph WSW12.9 kmh WSW 17.0 mph27.4 kmh 29.63 in1003.4 mb 0.00 in0.0 mm 0.00 in0.0 mm 0.27 in6.9 mm
01:00 PM 49.4°F9.7°C 39.5°F4.2°C 69% 5.0 mph WSW8.0 kmh WSW 17.0 mph27.4 kmh 29.63 in1003.4 mb 0.00 in0.0 mm 0.00 in0.0 mm 0.27 in6.9 mm
01:05 PM 49.4°F9.7°C 39.5°F4.2°C 69% 6.0 mph WSW9.7 kmh WSW 14.0 mph22.5 kmh 29.63 in1003.4 mb 0.00 in0.0 mm 0.00 in0.0 mm 0.27 in6.9 mm
01:10 PM 49.4°F9.7°C 39.5°F4.2°C 69% 6.0 mph SW9.7 kmh SW 14.0 mph22.5 kmh 29.63 in1003.4 mb 0.00 in0.0 mm 0.00 in0.0 mm 0.27 in6.9 mm
01:15 PM 49.3°F9.6°C 39.4°F4.1°C 69% 7.0 mph WSW11.3 kmh WSW 15.0 mph24.1 kmh 29.63 in1003.4 mb 0.00 in0.0 mm 0.00 in0.0 mm 0.27 in6.9 mm
01:20 PM 49.2°F9.6°C 38.9°F3.8°C 68% 6.0 mph SW9.7 kmh SW 15.0 mph24.1 kmh 29.63 in1003.4 mb 0.00 in0.0 mm 0.00 in0.0 mm 0.27 in6.9 mm
01:25 PM 49.2°F9.6°C 39.3°F4.1°C 69% 10.0 mph WSW16.1 kmh WSW 16.0 mph25.7 kmh 29.63 in1003.4 mb 0.00 in0.0 mm 0.00 in0.0 mm 0.27 in6.9 mm
01:30 PM 49.1°F9.5°C 39.2°F4.0°C 69% 6.0 mph WSW9.7 kmh WSW 16.0 mph25.7 kmh 29.63 in1003.4 mb 0.00 in0.0 mm 0.00 in0.0 mm 0.27 in6.9 mm
01:35 PM 49.3°F9.6°C 39.8°F4.3°C 70% 9.0 mph SW14.5 kmh SW 16.0 mph25.7 kmh 29.62 in1003.0 mb 0.00 in0.0 mm 0.00 in0.0 mm 0.27 in6.9 mm
01:40 PM 49.3°F9.6°C 39.8°F4.3°C 70% 8.0 mph WSW12.9 kmh WSW 16.0 mph25.7 kmh 29.62 in1003.0 mb 0.00 in0.0 mm 0.00 in0.0 mm 0.27 in6.9 mm
01:45 PM 49.5°F9.7°C 40.3°F4.6°C 71% 12.0 mph WSW19.3 kmh WSW 16.0 mph25.7 kmh 29.62 in1003.0 mb 0.00 in0.0 mm 0.00 in0.0 mm 0.27 in6.9 mm
01:50 PM 49.6°F9.8°C 40.1°F4.5°C 70% 7.0 mph WSW11.3 kmh WSW 16.0 mph25.7 kmh 29.62 in1003.0 mb 0.00 in0.0 mm 0.00 in0.0 mm 0.27 in6.9 mm
01:55 PM 49.6°F9.8°C 40.4°F4.7°C 71% 11.0 mph W17.7 kmh W 16.0 mph25.7 kmh 29.62 in1003.0 mb 0.00 in0.0 mm 0.00 in0.0 mm 0.27 in6.9 mm
02:00 PM 49.6°F9.8°C 40.4°F4.7°C 71% 6.0 mph WSW9.7 kmh WSW 18.0 mph29.0 kmh 29.62 in1003.0 mb 0.00 in0.0 mm 0.00 in0.0 mm 0.27 in6.9 mm
02:05 PM 49.6°F9.8°C 40.8°F4.9°C 72% 7.0 mph WSW11.3 kmh WSW 18.0 mph29.0 kmh 29.62 in1003.0 mb 0.00 in0.0 mm 0.00 in0.0 mm 0.27 in6.9 mm
02:10 PM 49.5°F9.7°C 40.3°F4.6°C 71% 7.0 mph WSW11.3 kmh WSW 18.0 mph29.0 kmh 29.62 in1003.0 mb 0.00 in0.0 mm 0.00 in0.0 mm 0.27 in6.9 mm
02:15 PM 49.4°F9.7°C 40.2°F4.6°C 71% 8.0 mph WSW12.9 kmh WSW 18.0 mph29.0 kmh 29.62 in1003.0 mb 0.00 in0.0 mm 0.00 in0.0 mm 0.27 in6.9 mm
02:20 PM 49.4°F9.7°C 40.2°F4.6°C 71% 5.0 mph SW8.0 kmh SW 13.0 mph20.9 kmh 29.62 in1003.0 mb 0.00 in0.0 mm 0.00 in0.0 mm 0.27 in6.9 mm
02:25 PM 49.4°F9.7°C 40.2°F4.6°C 71% 7.0 mph SW11.3 kmh SW 13.0 mph20.9 kmh 29.62 in1003.0 mb 0.00 in0.0 mm 0.00 in0.0 mm 0.27 in6.9 mm
02:30 PM 49.3°F9.6°C 40.1°F4.5°C 71% 7.0 mph WSW11.3 kmh WSW 13.0 mph20.9 kmh 29.61 in1002.7 mb 0.00 in0.0 mm 0.00 in0.0 mm 0.27 in6.9 mm
02:35 PM 49.3°F9.6°C 40.1°F4.5°C 71% 9.0 mph WSW14.5 kmh WSW 13.0 mph20.9 kmh 29.62 in1003.0 mb 0.00 in0.0 mm 0.00 in0.0 mm 0.27 in6.9 mm
02:40 PM 49.2°F9.6°C 40.0°F4.4°C 71% 14.0 mph WSW22.5 kmh WSW 16.0 mph25.7 kmh 29.61 in1002.7 mb 0.00 in0.0 mm 0.00 in0.0 mm 0.27 in6.9 mm
02:45 PM 49.2°F9.6°C 40.0°F4.4°C 71% 7.0 mph SW11.3 kmh SW 16.0 mph25.7 kmh 29.61 in1002.7 mb 0.00 in0.0 mm 0.00 in0.0 mm 0.27 in6.9 mm
02:50 PM 49.3°F9.6°C 40.1°F4.5°C 71% 7.0 mph SW11.3 kmh SW 17.0 mph27.4 kmh 29.61 in1002.7 mb 0.00 in0.0 mm 0.00 in0.0 mm 0.27 in6.9 mm
02:55 PM 49.3°F9.6°C 40.5°F4.7°C 72% 4.0 mph WSW6.4 kmh WSW 17.0 mph27.4 kmh 29.61 in1002.7 mb 0.00 in0.0 mm 0.00 in0.0 mm 0.27 in6.9 mm
03:00 PM 49.4°F9.7°C 40.6°F4.8°C 72% 7.0 mph WSW11.3 kmh WSW 17.0 mph27.4 kmh 29.61 in1002.7 mb 0.00 in0.0 mm 0.00 in0.0 mm 0.27 in6.9 mm
03:05 PM 49.5°F9.7°C 40.7°F4.8°C 72% 8.0 mph WSW12.9 kmh WSW 17.0 mph27.4 kmh 29.61 in1002.7 mb 0.00 in0.0 mm 0.00 in0.0 mm 0.27 in6.9 mm
03:10 PM 49.5°F9.7°C 41.1°F5.1°C 73% 10.0 mph WSW16.1 kmh WSW 16.0 mph25.7 kmh 29.61 in1002.7 mb 0.00 in0.0 mm 0.00 in0.0 mm 0.27 in6.9 mm
03:15 PM 49.5°F9.7°C 41.1°F5.1°C 73% 8.0 mph SSW12.9 kmh SSW 18.0 mph29.0 kmh 29.61 in1002.7 mb 0.00 in0.0 mm 0.00 in0.0 mm 0.27 in6.9 mm
03:20 PM 49.5°F9.7°C 41.4°F5.2°C 74% 11.0 mph SW17.7 kmh SW 18.0 mph29.0 kmh 29.61 in1002.7 mb 0.00 in0.0 mm 0.00 in0.0 mm 0.27 in6.9 mm
03:25 PM 49.5°F9.7°C 41.4°F5.2°C 74% 14.0 mph WSW22.5 kmh WSW 18.0 mph29.0 kmh 29.61 in1002.7 mb 0.00 in0.0 mm 0.00 in0.0 mm 0.27 in6.9 mm
03:30 PM 49.5°F9.7°C 41.8°F5.4°C 75% 5.0 mph WSW8.0 kmh WSW 19.0 mph30.6 kmh 29.61 in1002.7 mb 0.00 in0.0 mm 0.00 in0.0 mm 0.27 in6.9 mm
03:35 PM 49.4°F9.7°C 42.0°F5.6°C 76% 10.0 mph WSW16.1 kmh WSW 19.0 mph30.6 kmh 29.61 in1002.7 mb 0.00 in0.0 mm 0.00 in0.0 mm 0.27 in6.9 mm
03:40 PM 49.3°F9.6°C 42.3°F5.7°C 77% 5.0 mph W8.0 kmh W 19.0 mph30.6 kmh 29.61 in1002.7 mb 0.00 in0.0 mm 0.00 in0.0 mm 0.27 in6.9 mm
03:45 PM 49.1°F9.5°C 42.4°F5.8°C 78% 7.0 mph W11.3 kmh W 19.0 mph30.6 kmh 29.61 in1002.7 mb 0.00 in0.0 mm 0.00 in0.0 mm 0.27 in6.9 mm
03:50 PM 49.0°F9.4°C 42.7°F5.9°C 79% 4.0 mph SW6.4 kmh SW 16.0 mph25.7 kmh 29.61 in1002.7 mb 0.00 in0.0 mm 0.00 in0.0 mm 0.27 in6.9 mm
03:55 PM 48.9°F9.4°C 42.9°F6.1°C 80% 10.0 mph WSW16.1 kmh WSW 16.0 mph25.7 kmh 29.61 in1002.7 mb 0.00 in0.0 mm 0.00 in0.0 mm 0.27 in6.9 mm
04:00 PM 48.8°F9.3°C 43.2°F6.2°C 81% 8.0 mph WSW12.9 kmh WSW 15.0 mph24.1 kmh 29.61 in1002.7 mb 0.00 in0.0 mm 0.00 in0.0 mm 0.27 in6.9 mm
04:05 PM 48.7°F9.3°C 43.1°F6.2°C 81% 5.0 mph WSW8.0 kmh WSW 15.0 mph24.1 kmh 29.61 in1002.7 mb 0.00 in0.0 mm 0.00 in0.0 mm 0.27 in6.9 mm
04:10 PM 48.6°F9.2°C 43.3°F6.3°C 82% 7.0 mph W11.3 kmh W 16.0 mph25.7 kmh 29.61 in1002.7 mb 0.00 in0.0 mm 0.00 in0.0 mm 0.27 in6.9 mm
04:15 PM 48.5°F9.2°C 43.2°F6.2°C 82% 10.0 mph SW16.1 kmh SW 16.0 mph25.7 kmh 29.61 in1002.7 mb 0.00 in0.0 mm 0.00 in0.0 mm 0.27 in6.9 mm
04:20 PM 48.4°F9.1°C 43.4°F6.3°C 83% 6.0 mph SW9.7 kmh SW 17.0 mph27.4 kmh 29.61 in1002.7 mb 0.00 in0.0 mm 0.00 in0.0 mm 0.27 in6.9 mm
04:25 PM 48.2°F9.0°C 43.2°F6.2°C 83% 7.0 mph WSW11.3 kmh WSW 17.0 mph27.4 kmh 29.61 in1002.7 mb 0.00 in0.0 mm 0.00 in0.0 mm 0.27 in6.9 mm
04:30 PM 48.2°F9.0°C 43.6°F6.4°C 84% 10.0 mph WSW16.1 kmh WSW 17.0 mph27.4 kmh 29.61 in1002.7 mb 0.00 in0.0 mm 0.00 in0.0 mm 0.27 in6.9 mm
04:35 PM 48.2°F9.0°C 43.6°F6.4°C 84% 6.0 mph WSW9.7 kmh WSW 17.0 mph27.4 kmh 29.61 in1002.7 mb 0.00 in0.0 mm 0.00 in0.0 mm 0.27 in6.9 mm
04:40 PM 48.2°F9.0°C 43.6°F6.4°C 84% 11.0 mph WSW17.7 kmh WSW 16.0 mph25.7 kmh 29.61 in1002.7 mb 0.00 in0.0 mm 0.00 in0.0 mm 0.27 in6.9 mm
04:45 PM 48.2°F9.0°C 43.6°F6.4°C 84% 5.0 mph WSW8.0 kmh WSW 16.0 mph25.7 kmh 29.61 in1002.7 mb 0.00 in0.0 mm 0.00 in0.0 mm 0.27 in6.9 mm
04:50 PM 48.3°F9.1°C 43.6°F6.4°C 84% 8.0 mph WSW12.9 kmh WSW 12.0 mph19.3 kmh 29.61 in1002.7 mb 0.00 in0.0 mm 0.00 in0.0 mm 0.27 in6.9 mm
04:55 PM 48.4°F9.1°C 43.7°F6.5°C 84% 8.0 mph W12.9 kmh W 16.0 mph25.7 kmh 29.61 in1002.7 mb 0.00 in0.0 mm 0.00 in0.0 mm 0.27 in6.9 mm
05:00 PM 48.6°F9.2°C 43.9°F6.6°C 84% 12.0 mph WSW19.3 kmh WSW 16.0 mph25.7 kmh 29.61 in1002.7 mb 0.00 in0.0 mm 0.00 in0.0 mm 0.27 in6.9 mm
05:05 PM 48.6°F9.2°C 43.9°F6.6°C 84% 6.0 mph WSW9.7 kmh WSW 16.0 mph25.7 kmh 29.61 in1002.7 mb 0.00 in0.0 mm 0.00 in0.0 mm 0.27 in6.9 mm
05:10 PM 48.7°F9.3°C 44.0°F6.7°C 84% 6.0 mph WSW9.7 kmh WSW 19.0 mph30.6 kmh 29.61 in1002.7 mb 0.00 in0.0 mm 0.00 in0.0 mm 0.27 in6.9 mm
05:15 PM 48.8°F9.3°C 44.1°F6.7°C 84% 6.0 mph WSW9.7 kmh WSW 19.0 mph30.6 kmh 29.61 in1002.7 mb 0.00 in0.0 mm 0.00 in0.0 mm 0.27 in6.9 mm
05:20 PM 48.9°F9.4°C 43.9°F6.6°C 83% 9.0 mph WSW14.5 kmh WSW 19.0 mph30.6 kmh 29.61 in1002.7 mb 0.00 in0.0 mm 0.00 in0.0 mm 0.27 in6.9 mm
05:25 PM 49.0°F9.4°C 44.0°F6.7°C 83% 4.0 mph W6.4 kmh W 19.0 mph30.6 kmh 29.61 in1002.7 mb 0.00 in0.0 mm 0.00 in0.0 mm 0.27 in6.9 mm
05:30 PM 49.2°F9.6°C 44.2°F6.8°C 83% 8.0 mph WSW12.9 kmh WSW 14.0 mph22.5 kmh 29.61 in1002.7 mb 0.00 in0.0 mm 0.00 in0.0 mm 0.27 in6.9 mm
05:35 PM 49.3°F9.6°C 44.0°F6.7°C 82% 9.0 mph SW14.5 kmh SW 14.0 mph22.5 kmh 29.61 in1002.7 mb 0.00 in0.0 mm 0.00 in0.0 mm 0.27 in6.9 mm
05:40 PM 49.3°F9.6°C 44.0°F6.7°C 82% 9.0 mph WSW14.5 kmh WSW 12.0 mph19.3 kmh 29.61 in1002.7 mb 0.00 in0.0 mm 0.00 in0.0 mm 0.27 in6.9 mm
05:45 PM 49.4°F9.7°C 44.1°F6.7°C 82% 8.0 mph WSW12.9 kmh WSW 15.0 mph24.1 kmh 29.61 in1002.7 mb 0.00 in0.0 mm 0.00 in0.0 mm 0.27 in6.9 mm
05:50 PM 49.4°F9.7°C 44.1°F6.7°C 82% 7.0 mph WSW11.3 kmh WSW 16.0 mph25.7 kmh 29.61 in1002.7 mb 0.00 in0.0 mm 0.00 in0.0 mm 0.27 in6.9 mm
05:55 PM 49.3°F9.6°C 44.0°F6.7°C 82% 5.0 mph WSW8.0 kmh WSW 18.0 mph29.0 kmh 29.62 in1003.0 mb 0.00 in0.0 mm 0.00 in0.0 mm 0.28 in7.1 mm
06:00 PM 49.1°F9.5°C 44.1°F6.7°C 83% 6.0 mph W9.7 kmh W 18.0 mph29.0 kmh 29.61 in1002.7 mb 0.00 in0.0 mm 0.00 in0.0 mm 0.28 in7.1 mm
06:05 PM 49.0°F9.4°C 44.0°F6.7°C 83% 4.0 mph WSW6.4 kmh WSW 18.0 mph29.0 kmh 29.62 in1003.0 mb 0.07 in1.8 mm 0.84 in21.3 mm 0.29 in7.4 mm
06:10 PM 48.8°F9.3°C 44.1°F6.7°C 84% 2.0 mph W3.2 kmh W 18.0 mph29.0 kmh 29.62 in1003.0 mb 0.12 in3.0 mm 0.60 in15.2 mm 0.30 in7.6 mm
06:15 PM 48.8°F9.3°C 44.1°F6.7°C 84% 5.0 mph W8.0 kmh W 15.0 mph24.1 kmh 29.62 in1003.0 mb 0.07 in1.8 mm 0.00 in0.0 mm 0.30 in7.6 mm
06:20 PM 48.8°F9.3°C 44.5°F6.9°C 85% 12.0 mph W19.3 kmh W 15.0 mph24.1 kmh 29.62 in1003.0 mb 0.04 in1.0 mm 0.00 in0.0 mm 0.30 in7.6 mm
06:25 PM 48.9°F9.4°C 44.6°F7.0°C 85% 8.0 mph W12.9 kmh W 13.0 mph20.9 kmh 29.62 in1003.0 mb 0.00 in0.0 mm 0.00 in0.0 mm 0.30 in7.6 mm
06:30 PM 49.0°F9.4°C 44.7°F7.1°C 85% 8.0 mph WNW12.9 kmh WNW 23.0 mph37.0 kmh 29.62 in1003.0 mb 0.00 in0.0 mm 0.00 in0.0 mm 0.30 in7.6 mm
06:35 PM 49.2°F9.6°C 44.8°F7.1°C 85% 5.0 mph W8.0 kmh W 23.0 mph37.0 kmh 29.62 in1003.0 mb 0.00 in0.0 mm 0.00 in0.0 mm 0.30 in7.6 mm
06:40 PM 49.4°F9.7°C 44.7°F7.1°C 84% 9.0 mph W14.5 kmh W 23.0 mph37.0 kmh 29.62 in1003.0 mb 0.00 in0.0 mm 0.00 in0.0 mm 0.30 in7.6 mm
06:45 PM 49.7°F9.8°C 45.0°F7.2°C 84% 7.0 mph WNW11.3 kmh WNW 23.0 mph37.0 kmh 29.62 in1003.0 mb 0.00 in0.0 mm 0.00 in0.0 mm 0.30 in7.6 mm
06:50 PM 49.9°F9.9°C 45.2°F7.3°C 84% 10.0 mph W16.1 kmh W 23.0 mph37.0 kmh 29.63 in1003.4 mb 0.00 in0.0 mm 0.00 in0.0 mm 0.30 in7.6 mm
06:55 PM 49.9°F9.9°C 44.9°F7.2°C 83% 9.0 mph W14.5 kmh W 23.0 mph37.0 kmh 29.63 in1003.4 mb 0.00 in0.0 mm 0.00 in0.0 mm 0.30 in7.6 mm
07:00 PM 49.7°F9.8°C 44.7°F7.1°C 83% 7.0 mph SW11.3 kmh SW 23.0 mph37.0 kmh 29.63 in1003.4 mb 0.00 in0.0 mm 0.00 in0.0 mm 0.30 in7.6 mm
07:05 PM 49.6°F9.8°C 44.6°F7.0°C 83% 5.0 mph WNW8.0 kmh WNW 23.0 mph37.0 kmh 29.63 in1003.4 mb 0.00 in0.0 mm 0.00 in0.0 mm 0.30 in7.6 mm
07:10 PM 49.5°F9.7°C 44.5°F6.9°C 83% 7.0 mph WNW11.3 kmh WNW 18.0 mph29.0 kmh 29.64 in1003.7 mb 0.00 in0.0 mm 0.00 in0.0 mm 0.30 in7.6 mm
07:15 PM 49.6°F9.8°C 44.6°F7.0°C 83% 12.0 mph WNW19.3 kmh WNW 18.0 mph29.0 kmh 29.64 in1003.7 mb 0.00 in0.0 mm 0.00 in0.0 mm 0.31 in7.9 mm
07:20 PM 49.5°F9.7°C 44.2°F6.8°C 82% 6.0 mph W9.7 kmh W 15.0 mph24.1 kmh 29.64 in1003.7 mb 0.00 in0.0 mm 0.00 in0.0 mm 0.31 in7.9 mm
07:25 PM 49.5°F9.7°C 44.2°F6.8°C 82% 6.0 mph W9.7 kmh W 20.0 mph32.2 kmh 29.64 in1003.7 mb 0.00 in0.0 mm 0.00 in0.0 mm 0.31 in7.9 mm
07:30 PM 49.5°F9.7°C 44.2°F6.8°C 82% 8.0 mph NW12.9 kmh NW 20.0 mph32.2 kmh 29.64 in1003.7 mb 0.00 in0.0 mm 0.00 in0.0 mm 0.31 in7.9 mm
07:35 PM 49.6°F9.8°C 44.3°F6.8°C 82% 4.0 mph NW6.4 kmh NW 20.0 mph32.2 kmh 29.64 in1003.7 mb 0.00 in0.0 mm 0.00 in0.0 mm 0.31 in7.9 mm
07:40 PM 49.8°F9.9°C 44.1°F6.7°C 81% 11.0 mph W17.7 kmh W 24.0 mph38.6 kmh 29.65 in1004.1 mb 0.00 in0.0 mm 0.00 in0.0 mm 0.31 in7.9 mm
07:45 PM 50.0°F10.0°C 43.7°F6.5°C 79% 8.0 mph WSW12.9 kmh WSW 24.0 mph38.6 kmh 29.64 in1003.7 mb 0.00 in0.0 mm 0.00 in0.0 mm 0.32 in8.1 mm
07:50 PM 50.0°F10.0°C 43.7°F6.5°C 79% 7.0 mph W11.3 kmh W 24.0 mph38.6 kmh 29.65 in1004.1 mb 0.00 in0.0 mm 0.00 in0.0 mm 0.32 in8.1 mm
07:55 PM 49.9°F9.9°C 43.2°F6.2°C 78% 9.0 mph WNW14.5 kmh WNW 24.0 mph38.6 kmh 29.65 in1004.1 mb 0.00 in0.0 mm 0.00 in0.0 mm 0.32 in8.1 mm
08:00 PM 50.0°F10.0°C 43.0°F6.1°C 77% 3.0 mph NW4.8 kmh NW 18.0 mph29.0 kmh 29.65 in1004.1 mb 0.00 in0.0 mm 0.00 in0.0 mm 0.32 in8.1 mm
08:05 PM 50.0°F10.0°C 43.0°F6.1°C 77% 6.0 mph NW9.7 kmh NW 18.0 mph29.0 kmh 29.66 in1004.4 mb 0.00 in0.0 mm 0.00 in0.0 mm 0.32 in8.1 mm
08:10 PM 50.1°F10.1°C 43.1°F6.2°C 77% 5.0 mph W8.0 kmh W 14.0 mph22.5 kmh 29.66 in1004.4 mb 0.00 in0.0 mm 0.00 in0.0 mm 0.32 in8.1 mm
08:15 PM 50.1°F10.1°C 43.1°F6.2°C 77% 6.0 mph W9.7 kmh W 20.0 mph32.2 kmh 29.66 in1004.4 mb 0.00 in0.0 mm 0.00 in0.0 mm 0.32 in8.1 mm
08:20 PM 50.2°F10.1°C 42.8°F6.0°C 76% 11.0 mph NW17.7 kmh NW 20.0 mph32.2 kmh 29.67 in1004.7 mb 0.00 in0.0 mm 0.00 in0.0 mm 0.32 in8.1 mm
08:25 PM 50.2°F10.1°C 42.5°F5.8°C 75% 3.0 mph NNW4.8 kmh NNW 20.0 mph32.2 kmh 29.67 in1004.7 mb 0.00 in0.0 mm 0.00 in0.0 mm 0.32 in8.1 mm
08:30 PM 50.0°F10.0°C 41.5°F5.3°C 73% 10.0 mph W16.1 kmh W 20.0 mph32.2 kmh 29.66 in1004.4 mb 0.00 in0.0 mm 0.00 in0.0 mm 0.32 in8.1 mm
08:35 PM 50.0°F10.0°C 41.2°F5.1°C 72% 5.0 mph W8.0 kmh W 20.0 mph32.2 kmh 29.67 in1004.7 mb 0.00 in0.0 mm 0.00 in0.0 mm 0.32 in8.1 mm
08:40 PM 50.1°F10.1°C 40.9°F4.9°C 71% 6.0 mph WNW9.7 kmh WNW 20.0 mph32.2 kmh 29.67 in1004.7 mb 0.00 in0.0 mm 0.00 in0.0 mm 0.32 in8.1 mm
08:45 PM 50.1°F10.1°C 41.3°F5.2°C 72% 5.0 mph NW8.0 kmh NW 20.0 mph32.2 kmh 29.67 in1004.7 mb 0.00 in0.0 mm 0.00 in0.0 mm 0.32 in8.1 mm
08:50 PM 50.0°F10.0°C 41.2°F5.1°C 72% 4.0 mph WSW6.4 kmh WSW 20.0 mph32.2 kmh 29.68 in1005.1 mb 0.00 in0.0 mm 0.00 in0.0 mm 0.32 in8.1 mm
08:55 PM 49.9°F9.9°C 41.5°F5.3°C 73% 5.0 mph WNW8.0 kmh WNW 13.0 mph20.9 kmh 29.68 in1005.1 mb 0.00 in0.0 mm 0.00 in0.0 mm 0.32 in8.1 mm
09:00 PM 49.8°F9.9°C 41.7°F5.4°C 74% 5.0 mph NW8.0 kmh NW 13.0 mph20.9 kmh 29.68 in1005.1 mb 0.00 in0.0 mm 0.00 in0.0 mm 0.33 in8.4 mm
09:05 PM 49.4°F9.7°C 42.4°F5.8°C 77% 8.0 mph W12.9 kmh W 16.0 mph25.7 kmh 29.69 in1005.4 mb 0.21 in5.3 mm 2.52 in64.0 mm 0.35 in8.9 mm
09:10 PM 48.9°F9.4°C 42.3°F5.7°C 78% 4.0 mph WNW6.4 kmh WNW 17.0 mph27.4 kmh 29.68 in1005.1 mb 0.09 in2.3 mm 0.00 in0.0 mm 0.35 in8.9 mm
09:15 PM 48.4°F9.1°C 42.4°F5.8°C 80% 8.0 mph WNW12.9 kmh WNW 18.0 mph29.0 kmh 29.68 in1005.1 mb 0.05 in1.3 mm 0.00 in0.0 mm 0.35 in8.9 mm
09:20 PM 48.2°F9.0°C 42.6°F5.9°C 81% 4.0 mph W6.4 kmh W 18.0 mph29.0 kmh 29.68 in1005.1 mb 0.04 in1.0 mm 0.00 in0.0 mm 0.35 in8.9 mm
09:25 PM 48.0°F8.9°C 42.7°F5.9°C 82% 5.0 mph WNW8.0 kmh WNW 19.0 mph30.6 kmh 29.68 in1005.1 mb 0.00 in0.0 mm 0.00 in0.0 mm 0.35 in8.9 mm
09:30 PM 48.0°F8.9°C 42.4°F5.8°C 81% 10.0 mph W16.1 kmh W 20.0 mph32.2 kmh 29.69 in1005.4 mb 0.00 in0.0 mm 0.00 in0.0 mm 0.35 in8.9 mm
09:35 PM 48.1°F8.9°C 42.5°F5.8°C 81% 8.0 mph W12.9 kmh W 24.0 mph38.6 kmh 29.69 in1005.4 mb 0.00 in0.0 mm 0.00 in0.0 mm 0.35 in8.9 mm
09:40 PM 48.4°F9.1°C 42.1°F5.6°C 79% 6.0 mph NW9.7 kmh NW 24.0 mph38.6 kmh 29.69 in1005.4 mb 0.00 in0.0 mm 0.00 in0.0 mm 0.35 in8.9 mm
09:45 PM 48.6°F9.2°C 42.3°F5.7°C 79% 7.0 mph W11.3 kmh W 26.0 mph41.8 kmh 29.69 in1005.4 mb 0.00 in0.0 mm 0.00 in0.0 mm 0.35 in8.9 mm
09:50 PM 48.7°F9.3°C 42.4°F5.8°C 79% 5.0 mph W8.0 kmh W 26.0 mph41.8 kmh 29.70 in1005.8 mb 0.00 in0.0 mm 0.00 in0.0 mm 0.35 in8.9 mm
09:55 PM 48.6°F9.2°C 42.6°F5.9°C 80% 8.0 mph NW12.9 kmh NW 26.0 mph41.8 kmh 29.70 in1005.8 mb 0.00 in0.0 mm 0.00 in0.0 mm 0.35 in8.9 mm
10:00 PM 48.4°F9.1°C 42.4°F5.8°C 80% 8.0 mph WNW12.9 kmh WNW 26.0 mph41.8 kmh 29.70 in1005.8 mb 0.00 in0.0 mm 0.00 in0.0 mm 0.35 in8.9 mm
10:05 PM 48.1°F8.9°C 42.5°F5.8°C 81% 8.0 mph WNW12.9 kmh WNW 25.0 mph40.2 kmh 29.70 in1005.8 mb 0.00 in0.0 mm 0.00 in0.0 mm 0.35 in8.9 mm
10:10 PM 47.9°F8.8°C 42.3°F5.7°C 81% 4.0 mph 6.4 kmh 25.0 mph40.2 kmh 29.70 in1005.8 mb 0.00 in0.0 mm 0.00 in0.0 mm 0.35 in8.9 mm
10:15 PM 47.9°F8.8°C 42.0°F5.6°C 80% 8.0 mph NW12.9 kmh NW 22.0 mph35.4 kmh 29.70 in1005.8 mb 0.00 in0.0 mm 0.00 in0.0 mm 0.35 in8.9 mm
10:20 PM 47.9°F8.8°C 41.6°F5.3°C 79% 5.0 mph W8.0 kmh W 22.0 mph35.4 kmh 29.70 in1005.8 mb 0.00 in0.0 mm 0.00 in0.0 mm 0.35 in8.9 mm
10:25 PM 48.0°F8.9°C 41.0°F5.0°C 77% 5.0 mph NW8.0 kmh NW 20.0 mph32.2 kmh 29.70 in1005.8 mb 0.00 in0.0 mm 0.00 in0.0 mm 0.35 in8.9 mm
10:30 PM 48.2°F9.0°C 40.2°F4.6°C 74% 8.0 mph WNW12.9 kmh WNW 21.0 mph33.8 kmh 29.71 in1006.1 mb 0.00 in0.0 mm 0.00 in0.0 mm 0.35 in8.9 mm
10:35 PM 48.3°F9.1°C 39.6°F4.2°C 72% 7.0 mph W11.3 kmh W 24.0 mph38.6 kmh 29.71 in1006.1 mb 0.00 in0.0 mm 0.00 in0.0 mm 0.35 in8.9 mm
10:40 PM 48.5°F9.2°C 39.7°F4.3°C 72% 6.0 mph NW9.7 kmh NW 24.0 mph38.6 kmh 29.71 in1006.1 mb 0.00 in0.0 mm 0.00 in0.0 mm 0.35 in8.9 mm
10:45 PM 48.6°F9.2°C 39.5°F4.2°C 71% 7.0 mph WNW11.3 kmh WNW 24.0 mph38.6 kmh 29.71 in1006.1 mb 0.00 in0.0 mm 0.00 in0.0 mm 0.35 in8.9 mm
10:50 PM 48.6°F9.2°C 39.5°F4.2°C 71% 7.0 mph NNW11.3 kmh NNW 24.0 mph38.6 kmh 29.71 in1006.1 mb 0.00 in0.0 mm 0.00 in0.0 mm 0.35 in8.9 mm
10:55 PM 48.5°F9.2°C 39.7°F4.3°C 72% 6.0 mph W9.7 kmh W 16.0 mph25.7 kmh 29.71 in1006.1 mb 0.00 in0.0 mm 0.00 in0.0 mm 0.35 in8.9 mm
11:00 PM 48.2°F9.0°C 39.5°F4.2°C 72% 9.0 mph NW14.5 kmh NW 16.0 mph25.7 kmh 29.72 in1006.4 mb 0.00 in0.0 mm 0.00 in0.0 mm 0.35 in8.9 mm
11:05 PM 48.1°F8.9°C 39.4°F4.1°C 72% 3.0 mph WNW4.8 kmh WNW 16.0 mph25.7 kmh 29.72 in1006.4 mb 0.00 in0.0 mm 0.00 in0.0 mm 0.35 in8.9 mm
11:10 PM 48.1°F8.9°C 39.4°F4.1°C 72% 4.0 mph NW6.4 kmh NW 16.0 mph25.7 kmh 29.72 in1006.4 mb 0.00 in0.0 mm 0.00 in0.0 mm 0.35 in8.9 mm
11:15 PM 48.0°F8.9°C 39.6°F4.2°C 73% 4.0 mph WNW6.4 kmh WNW 16.0 mph25.7 kmh 29.72 in1006.4 mb 0.00 in0.0 mm 0.00 in0.0 mm 0.35 in8.9 mm
11:20 PM 47.9°F8.8°C 39.9°F4.4°C 74% 3.0 mph N4.8 kmh N 19.0 mph30.6 kmh 29.72 in1006.4 mb 0.00 in0.0 mm 0.00 in0.0 mm 0.35 in8.9 mm
11:25 PM 47.9°F8.8°C 40.6°F4.8°C 76% 5.0 mph WNW8.0 kmh WNW 19.0 mph30.6 kmh 29.72 in1006.4 mb 0.00 in0.0 mm 0.00 in0.0 mm 0.35 in8.9 mm
11:30 PM 47.8°F8.8°C 40.5°F4.7°C 76% 6.0 mph NW9.7 kmh NW 19.0 mph30.6 kmh 29.72 in1006.4 mb 0.00 in0.0 mm 0.00 in0.0 mm 0.35 in8.9 mm
11:35 PM 47.8°F8.8°C 40.8°F4.9°C 77% 3.0 mph WNW4.8 kmh WNW 19.0 mph30.6 kmh 29.72 in1006.4 mb 0.00 in0.0 mm 0.00 in0.0 mm 0.35 in8.9 mm
11:40 PM 47.8°F8.8°C 41.2°F5.1°C 78% 9.0 mph WNW14.5 kmh WNW 12.0 mph19.3 kmh 29.72 in1006.4 mb 0.00 in0.0 mm 0.00 in0.0 mm 0.36 in9.1 mm
11:45 PM 47.7°F8.7°C 41.1°F5.1°C 78% 6.0 mph WNW9.7 kmh WNW 15.0 mph24.1 kmh 29.72 in1006.4 mb 0.00 in0.0 mm 0.00 in0.0 mm 0.36 in9.1 mm
11:50 PM 47.7°F8.7°C 41.4°F5.2°C 79% 2.0 mph NW3.2 kmh NW 15.0 mph24.1 kmh 29.73 in1006.8 mb 0.00 in0.0 mm 0.00 in0.0 mm 0.36 in9.1 mm
11:55 PM 47.3°F8.5°C 41.0°F5.0°C 79% 6.0 mph NW9.7 kmh NW 15.0 mph24.1 kmh 29.72 in1006.4 mb 0.00 in0.0 mm 0.00 in0.0 mm 0.37 in9.4 mm